createdAt,value
2022-08-26T00:01:51.314Z,82.45
2022-08-26T00:04:18.057Z,81.13
2022-08-26T00:06:46.058Z,81.01
2022-08-26T00:09:16.321Z,81.13
2022-08-26T00:11:44.804Z,80.37
2022-08-26T00:14:13.398Z,80.94
2022-08-26T00:16:40.923Z,80.11
2022-08-26T00:19:14.086Z,79.78
2022-08-26T00:21:41.179Z,79.64
2022-08-26T00:24:07.581Z,80.04
2022-08-26T00:26:34.873Z,79.25
2022-08-26T00:29:01.420Z,79.67
2022-08-26T00:31:27.990Z,80.26
2022-08-26T00:33:57.879Z,80.05
2022-08-26T00:36:24.310Z,79.22
2022-08-26T00:38:50.956Z,79.70
2022-08-26T00:41:19.452Z,79.74
2022-08-26T00:43:47.863Z,79.37
2022-08-26T00:46:23.479Z,80.28
2022-08-26T00:48:53.730Z,80.33
2022-08-26T00:51:24.707Z,80.84
2022-08-26T00:54:04.023Z,80.98
2022-08-26T00:56:36.615Z,80.02
2022-08-26T00:59:08.083Z,79.64
2022-08-26T01:01:36.533Z,79.75
2022-08-26T01:04:05.860Z,79.91
2022-08-26T01:06:32.370Z,80.35
2022-08-26T01:08:58.822Z,79.89
2022-08-26T01:11:25.916Z,79.72
2022-08-26T01:13:56.175Z,79.69
2022-08-26T01:16:24.678Z,80.63
2022-08-26T01:18:54.713Z,79.76
2022-08-26T01:21:29.582Z,80.85
2022-08-26T01:23:57.904Z,80.44
2022-08-26T01:26:32.766Z,81.80
2022-08-26T01:29:03.008Z,81.35
2022-08-26T01:31:37.406Z,80.73
2022-08-26T01:34:10.904Z,81.17
2022-08-26T01:36:39.347Z,81.00
2022-08-26T01:39:07.223Z,80.42
2022-08-26T01:41:35.027Z,81.68
2022-08-26T01:44:03.341Z,82.06
2022-08-26T01:46:31.406Z,81.20
2022-08-26T01:49:02.373Z,82.41
2022-08-26T01:51:31.434Z,81.80
2022-08-26T01:53:58.464Z,81.51
2022-08-26T01:56:26.561Z,81.31
2022-08-26T01:59:02.650Z,81.42
2022-08-26T02:01:29.759Z,82.50
2022-08-26T02:04:06.951Z,82.05
2022-08-26T02:06:33.484Z,81.78
2022-08-26T02:09:03.616Z,83.05
2022-08-26T02:11:30.473Z,83.49
2022-08-26T02:14:19.729Z,82.52
2022-08-26T02:16:48.921Z,82.13
2022-08-26T02:19:27.735Z,82.58
2022-08-26T02:21:54.419Z,81.71
2022-08-26T02:24:27.554Z,81.34
2022-08-26T02:26:55.831Z,82.72
2022-08-26T02:29:26.535Z,82.22
2022-08-26T02:31:55.726Z,82.14
2022-08-26T02:34:31.156Z,82.80
2022-08-26T02:37:03.554Z,81.60
2022-08-26T02:39:31.334Z,82.39
2022-08-26T02:41:59.148Z,82.76
2022-08-26T02:44:26.736Z,84.40
2022-08-26T02:46:54.602Z,81.70
2022-08-26T02:49:23.693Z,82.85
2022-08-26T02:51:51.012Z,82.83
2022-08-26T02:54:21.300Z,83.25
2022-08-26T02:56:48.336Z,83.97
2022-08-26T02:59:15.357Z,82.50
2022-08-26T03:01:42.548Z,82.58
2022-08-26T03:04:11.770Z,82.51
2022-08-26T03:06:39.228Z,82.75
2022-08-26T03:09:07.749Z,81.82
2022-08-26T03:11:34.454Z,82.38
2022-08-26T03:14:01.797Z,83.43
2022-08-26T03:16:35.738Z,83.43
2022-08-26T03:19:04.137Z,82.44
2022-08-26T03:21:30.818Z,82.42
2022-08-26T03:23:58.702Z,82.90
2022-08-26T03:26:26.045Z,83.06
2022-08-26T03:29:11.373Z,83.49
2022-08-26T03:31:37.939Z,83.13
2022-08-26T03:34:04.640Z,82.31
2022-08-26T03:36:31.351Z,82.59
2022-08-26T03:38:58.464Z,82.97
2022-08-26T03:41:24.928Z,82.80
2022-08-26T03:43:51.991Z,83.03
2022-08-26T03:46:20.465Z,83.30
2022-08-26T03:48:47.704Z,84.21
2022-08-26T03:51:19.035Z,83.14
2022-08-26T03:53:47.683Z,84.08
2022-08-26T03:56:15.178Z,82.93
2022-08-26T03:58:42.880Z,82.99
2022-08-26T04:01:09.529Z,82.46
2022-08-26T04:03:54.673Z,83.49
2022-08-26T04:06:21.317Z,83.04
2022-08-26T04:08:48.153Z,83.35
2022-08-26T04:11:23.673Z,83.35
2022-08-26T04:13:50.337Z,83.36
2022-08-26T04:16:18.047Z,82.99
2022-08-26T04:18:46.673Z,83.73
2022-08-26T04:21:13.581Z,83.02
2022-08-26T04:23:47.694Z,83.51
2022-08-26T04:26:15.157Z,83.19
2022-08-26T04:28:41.670Z,83.91
2022-08-26T04:31:12.260Z,82.84
2022-08-26T04:33:41.727Z,82.50
2022-08-26T04:36:08.817Z,82.45
2022-08-26T04:38:35.486Z,83.00
2022-08-26T04:41:03.305Z,84.02
2022-08-26T04:43:32.202Z,83.82
2022-08-26T04:46:01.250Z,83.05
2022-08-26T04:48:32.698Z,83.39
2022-08-26T04:50:59.966Z,83.44
2022-08-26T04:53:27.385Z,83.61
2022-08-26T04:55:55.250Z,83.49
2022-08-26T04:58:24.728Z,83.97
2022-08-26T05:00:54.141Z,83.27
2022-08-26T05:03:21.188Z,82.63
2022-08-26T05:05:49.956Z,83.04
2022-08-26T05:08:18.304Z,82.20
2022-08-26T05:10:48.476Z,82.74
2022-08-26T05:13:17.712Z,82.82
2022-08-26T05:15:48.571Z,82.33
2022-08-26T05:18:21.282Z,82.10
2022-08-26T05:20:54.474Z,82.36
2022-08-26T05:23:23.049Z,81.62
2022-08-26T05:25:55.792Z,81.71
2022-08-26T05:28:26.093Z,81.97
2022-08-26T05:30:53.352Z,81.05
2022-08-26T05:33:20.054Z,81.37
2022-08-26T05:35:47.021Z,81.63
2022-08-26T05:38:19.799Z,81.80
2022-08-26T05:40:52.546Z,81.85
2022-08-26T05:43:20.052Z,81.71
2022-08-26T05:45:50.024Z,81.19
2022-08-26T05:48:18.867Z,81.82
2022-08-26T05:50:51.716Z,81.90
2022-08-26T05:53:20.608Z,81.91
2022-08-26T05:55:54.938Z,81.67
2022-08-26T05:58:23.146Z,81.71
2022-08-26T06:01:05.293Z,80.77
2022-08-26T06:03:38.575Z,81.91
2022-08-26T06:06:11.320Z,81.36
2022-08-26T06:08:38.163Z,81.70
2022-08-26T06:11:18.251Z,81.46
2022-08-26T06:13:46.053Z,80.88
2022-08-26T06:16:15.334Z,81.42
2022-08-26T06:18:45.386Z,80.96
2022-08-26T06:21:24.505Z,81.27
2022-08-26T06:24:13.008Z,81.55
2022-08-26T06:26:42.917Z,80.93
2022-08-26T06:29:13.068Z,80.89
2022-08-26T06:31:50.051Z,80.57
2022-08-26T06:34:18.125Z,81.34
2022-08-26T06:36:45.020Z,81.48
2022-08-26T06:39:14.511Z,80.67
2022-08-26T06:41:43.460Z,79.76
2022-08-26T06:44:10.686Z,80.10
2022-08-26T06:46:38.244Z,79.26
2022-08-26T06:49:05.547Z,79.72
2022-08-26T06:51:34.742Z,79.20
2022-08-26T06:54:02.444Z,79.21
2022-08-26T06:56:34.001Z,79.40
2022-08-26T06:59:00.545Z,79.28
2022-08-26T07:01:30.073Z,78.57
2022-08-26T07:04:00.660Z,76.05
2022-08-26T07:06:28.260Z,76.93
2022-08-26T07:09:01.630Z,76.18
2022-08-26T07:11:30.691Z,75.61
2022-08-26T07:13:58.903Z,75.07
2022-08-26T07:16:27.827Z,74.75
2022-08-26T07:18:57.198Z,74.67
2022-08-26T07:21:24.713Z,74.28
2022-08-26T07:23:56.399Z,74.71
2022-08-26T07:26:27.473Z,74.03
2022-08-26T07:28:57.284Z,72.84
2022-08-26T07:31:26.665Z,72.38
2022-08-26T07:33:54.035Z,71.97
2022-08-26T07:36:21.844Z,72.20
2022-08-26T07:38:48.779Z,72.37
2022-08-26T07:41:17.381Z,71.77
2022-08-26T07:43:45.468Z,71.81
2022-08-26T07:46:18.360Z,71.43
2022-08-26T07:48:48.983Z,71.86
2022-08-26T07:51:17.731Z,70.39
2022-08-26T07:53:48.045Z,71.50
2022-08-26T07:56:19.035Z,71.53
2022-08-26T07:58:50.382Z,71.90
2022-08-26T08:01:18.386Z,71.19
2022-08-26T08:03:45.339Z,71.24
2022-08-26T08:06:12.150Z,71.58
2022-08-26T08:08:41.281Z,71.04
2022-08-26T08:11:07.836Z,70.47
2022-08-26T08:13:38.012Z,69.72
2022-08-26T08:16:05.360Z,68.96
2022-08-26T08:18:31.960Z,68.96
2022-08-26T08:21:21.303Z,68.66
2022-08-26T08:23:46.942Z,68.53
2022-08-26T08:26:14.111Z,68.37
2022-08-26T08:28:40.603Z,69.18
2022-08-26T08:31:08.083Z,68.92
2022-08-26T08:33:35.016Z,69.22
2022-08-26T08:36:01.822Z,68.91
2022-08-26T08:38:29.550Z,70.34
2022-08-26T08:40:56.002Z,70.04
2022-08-26T08:43:40.090Z,70.05
2022-08-26T08:46:12.470Z,70.04
2022-08-26T08:48:43.554Z,70.99
2022-08-26T08:51:18.880Z,71.60
2022-08-26T08:53:49.425Z,72.61
2022-08-26T08:56:26.077Z,73.95
2022-08-26T08:59:14.385Z,74.04
2022-08-26T09:02:23.913Z,73.86
2022-08-26T09:05:05.523Z,73.53
2022-08-26T09:07:40.197Z,73.84
2022-08-26T09:10:32.330Z,73.73
2022-08-26T09:13:01.029Z,73.80
2022-08-26T09:15:51.024Z,74.42
2022-08-26T09:18:35.974Z,73.76
2022-08-26T09:21:06.620Z,73.40
2022-08-26T09:23:36.267Z,73.90
2022-08-26T09:26:33.452Z,74.39
2022-08-26T09:29:03.678Z,74.25
2022-08-26T09:31:35.765Z,73.66
2022-08-26T09:34:13.295Z,73.79
2022-08-26T09:36:48.570Z,74.51
2022-08-26T09:39:37.741Z,74.13
2022-08-26T09:42:11.842Z,73.84
2022-08-26T09:45:08.347Z,73.82
2022-08-26T09:47:47.266Z,73.91
2022-08-26T09:50:30.928Z,73.73
2022-08-26T09:53:12.996Z,72.82
2022-08-26T09:55:42.424Z,73.13
2022-08-26T09:58:33.132Z,73.27
2022-08-26T10:01:01.627Z,73.95
2022-08-26T10:03:33.192Z,73.60
2022-08-26T10:06:06.721Z,72.82
2022-08-26T10:08:38.322Z,73.66
2022-08-26T10:11:37.011Z,72.36
2022-08-26T10:14:16.003Z,71.59
2022-08-26T10:16:48.698Z,72.19
2022-08-26T10:19:25.311Z,72.50
2022-08-26T10:22:13.589Z,72.23
2022-08-26T10:24:48.283Z,71.07
2022-08-26T10:27:16.238Z,72.25
2022-08-26T10:29:46.314Z,72.33
2022-08-26T10:32:21.094Z,72.77
2022-08-26T10:34:47.589Z,71.70
2022-08-26T10:37:18.752Z,72.12
2022-08-26T10:40:00.920Z,72.20
2022-08-26T10:42:40.355Z,72.10
2022-08-26T10:45:15.506Z,71.65
2022-08-26T10:47:53.252Z,71.98
2022-08-26T10:50:23.141Z,72.07
2022-08-26T10:53:01.996Z,71.69
2022-08-26T10:55:42.991Z,71.77
2022-08-26T10:58:26.573Z,71.40
2022-08-26T11:01:40.804Z,70.94
2022-08-26T11:04:13.917Z,71.32
2022-08-26T11:06:40.558Z,71.17
2022-08-26T11:09:09.205Z,71.60
2022-08-26T11:11:41.624Z,70.36
2022-08-26T11:14:29.029Z,70.83
2022-08-26T11:16:57.662Z,69.83
2022-08-26T11:19:59.339Z,69.61
2022-08-26T11:22:27.312Z,69.99
2022-08-26T11:24:56.733Z,69.73
2022-08-26T11:27:23.109Z,69.41
2022-08-26T11:29:56.717Z,69.02
2022-08-26T11:32:34.580Z,69.00
2022-08-26T11:35:05.251Z,68.58
2022-08-26T11:37:42.536Z,68.74
2022-08-26T11:40:14.734Z,68.65
2022-08-26T11:42:46.367Z,69.14
2022-08-26T11:45:26.835Z,69.12
2022-08-26T11:47:54.754Z,69.21
2022-08-26T11:50:27.509Z,69.81
2022-08-26T11:52:59.098Z,70.24
2022-08-26T11:55:25.512Z,69.86
2022-08-26T11:57:56.228Z,69.37
2022-08-26T12:00:33.899Z,69.90
2022-08-26T12:03:06.093Z,69.61
2022-08-26T12:05:38.338Z,68.54
2022-08-26T12:08:11.364Z,69.08
2022-08-26T12:10:38.894Z,68.19
2022-08-26T12:13:07.499Z,68.35
2022-08-26T12:15:35.644Z,67.71
2022-08-26T12:18:29.332Z,68.33
2022-08-26T12:20:59.415Z,69.39
2022-08-26T12:23:34.944Z,68.05
2022-08-26T12:26:08.353Z,68.38
2022-08-26T12:28:45.829Z,68.99
2022-08-26T12:31:25.093Z,68.19
2022-08-26T12:33:52.522Z,67.18
2022-08-26T12:36:31.384Z,68.01
2022-08-26T12:39:06.984Z,68.69
2022-08-26T12:41:44.626Z,68.04
2022-08-26T12:44:32.286Z,68.45
2022-08-26T12:47:23.475Z,67.80
2022-08-26T12:50:20.547Z,67.91
2022-08-26T12:53:00.988Z,67.36
2022-08-26T12:55:43.812Z,68.92
2022-08-26T12:58:35.217Z,68.24
2022-08-26T13:01:05.012Z,67.75
2022-08-26T13:03:34.435Z,68.22
2022-08-26T13:06:15.961Z,68.12
2022-08-26T13:08:45.941Z,68.10
2022-08-26T13:11:22.320Z,67.48
2022-08-26T13:13:51.898Z,67.46
2022-08-26T13:16:21.863Z,68.04
2022-08-26T13:18:51.638Z,67.85
2022-08-26T13:21:20.870Z,68.05
2022-08-26T13:23:48.034Z,67.92
2022-08-26T13:26:14.810Z,68.61
2022-08-26T13:28:42.334Z,68.52
2022-08-26T13:31:12.100Z,68.63
2022-08-26T13:33:39.033Z,68.28
2022-08-26T13:36:06.526Z,67.91
2022-08-26T13:38:34.097Z,68.33
2022-08-26T13:41:02.552Z,70.70
2022-08-26T13:43:31.115Z,73.06
2022-08-26T13:45:57.861Z,75.61
2022-08-26T13:48:24.370Z,77.90
2022-08-26T13:50:51.845Z,79.92
2022-08-26T13:53:18.795Z,80.05
2022-08-26T13:55:45.847Z,81.74
2022-08-26T13:58:13.587Z,85.22
2022-08-26T14:00:41.843Z,84.29
2022-08-26T14:03:13.107Z,85.75
2022-08-26T14:05:40.217Z,85.81
2022-08-26T14:08:07.382Z,85.72
2022-08-26T14:10:34.315Z,86.74
2022-08-26T14:13:00.885Z,87.32
2022-08-26T14:15:27.856Z,85.39
2022-08-26T14:17:55.960Z,85.93
2022-08-26T14:20:27.970Z,85.87
2022-08-26T14:23:13.067Z,86.45
2022-08-26T14:25:40.288Z,86.66
2022-08-26T14:28:06.739Z,86.79
2022-08-26T14:30:34.204Z,86.31
2022-08-26T14:33:00.767Z,85.12
2022-08-26T14:35:30.196Z,87.36
2022-08-26T14:37:57.235Z,88.12
2022-08-26T14:40:29.654Z,88.53
2022-08-26T14:42:56.234Z,87.57
2022-08-26T14:45:27.359Z,85.77
2022-08-26T14:47:56.624Z,88.26
2022-08-26T14:50:26.093Z,86.24
2022-08-26T14:53:11.141Z,86.41
2022-08-26T14:55:41.669Z,87.79
2022-08-26T14:58:10.029Z,85.54
2022-08-26T15:00:37.348Z,88.02
2022-08-26T15:03:04.031Z,84.79
2022-08-26T15:05:30.679Z,84.67
2022-08-26T15:07:57.284Z,82.62
2022-08-26T15:10:24.111Z,83.51
2022-08-26T15:12:50.581Z,84.03
2022-08-26T15:15:18.584Z,84.94
2022-08-26T15:17:45.306Z,81.91
2022-08-26T15:20:12.425Z,81.63
2022-08-26T15:22:43.148Z,81.73
2022-08-26T15:25:10.959Z,82.62
2022-08-26T15:27:37.729Z,83.37
2022-08-26T15:30:11.230Z,82.78
2022-08-26T15:32:37.713Z,82.12
2022-08-26T15:35:08.819Z,80.65
2022-08-26T15:37:36.031Z,81.33
2022-08-26T15:40:02.911Z,80.01
2022-08-26T15:42:29.491Z,80.40
2022-08-26T15:44:55.974Z,79.89
2022-08-26T15:47:23.724Z,78.65
2022-08-26T15:49:50.194Z,78.52
2022-08-26T15:52:17.124Z,79.63
2022-08-26T15:54:43.578Z,78.11
2022-08-26T15:57:12.377Z,78.65
2022-08-26T15:59:40.348Z,78.67
2022-08-26T16:02:07.434Z,76.74
2022-08-26T16:04:34.265Z,78.78
2022-08-26T16:07:00.905Z,78.52
2022-08-26T16:09:28.748Z,75.98
2022-08-26T16:11:56.193Z,78.05
2022-08-26T16:14:22.995Z,76.92
2022-08-26T16:16:49.889Z,77.57
2022-08-26T16:19:16.810Z,78.11
2022-08-26T16:21:44.670Z,77.90
2022-08-26T16:24:11.523Z,77.34
2022-08-26T16:26:39.430Z,77.89
2022-08-26T16:29:12.312Z,77.40
2022-08-26T16:31:39.083Z,78.50
2022-08-26T16:34:07.746Z,77.29
2022-08-26T16:36:38.837Z,77.59
2022-08-26T16:39:07.506Z,77.89
2022-08-26T16:41:35.140Z,78.12
2022-08-26T16:44:01.976Z,78.34
2022-08-26T16:46:28.793Z,77.62
2022-08-26T16:48:57.195Z,76.78
2022-08-26T16:51:26.931Z,77.69
2022-08-26T16:53:54.819Z,78.70
2022-08-26T16:56:33.686Z,77.82
2022-08-26T16:59:06.450Z,76.52
2022-08-26T17:01:33.023Z,77.35
2022-08-26T17:03:59.626Z,76.80
2022-08-26T17:06:26.082Z,76.76
2022-08-26T17:08:53.059Z,77.16
2022-08-26T17:11:19.738Z,77.59
2022-08-26T17:13:46.298Z,78.12
2022-08-26T17:16:14.559Z,78.53
2022-08-26T17:18:41.629Z,78.09
2022-08-26T17:21:11.404Z,78.33
2022-08-26T17:23:39.175Z,77.76
2022-08-26T17:26:05.759Z,76.90
2022-08-26T17:28:33.115Z,76.22
2022-08-26T17:31:00.102Z,76.74
2022-08-26T17:33:27.280Z,76.39
2022-08-26T17:35:55.658Z,76.61
2022-08-26T17:38:23.007Z,77.48
2022-08-26T17:40:49.999Z,77.00
2022-08-26T17:43:17.301Z,76.73
2022-08-26T17:45:44.154Z,77.21
2022-08-26T17:48:11.280Z,76.68
2022-08-26T17:50:39.761Z,76.30
2022-08-26T17:53:06.181Z,76.87
2022-08-26T17:55:32.893Z,76.37
2022-08-26T17:58:00.026Z,76.70
2022-08-26T18:00:30.451Z,76.04
2022-08-26T18:02:56.989Z,75.60
2022-08-26T18:05:24.035Z,76.46
2022-08-26T18:07:51.458Z,76.50
2022-08-26T18:10:20.362Z,76.50
2022-08-26T18:12:47.395Z,75.90
2022-08-26T18:15:16.342Z,76.64
2022-08-26T18:17:43.211Z,75.83
2022-08-26T18:20:12.917Z,76.48
2022-08-26T18:22:39.838Z,75.33
2022-08-26T18:25:08.379Z,75.38
2022-08-26T18:27:36.342Z,75.59
2022-08-26T18:30:06.548Z,75.55
2022-08-26T18:32:33.033Z,75.42
2022-08-26T18:34:59.739Z,75.60
2022-08-26T18:37:29.455Z,75.42
2022-08-26T18:39:59.404Z,74.80
2022-08-26T18:42:26.447Z,74.80
2022-08-26T18:44:53.440Z,75.65
2022-08-26T18:47:20.083Z,75.04
2022-08-26T18:49:47.268Z,74.58
2022-08-26T18:52:13.766Z,73.88
2022-08-26T18:54:40.355Z,74.79
2022-08-26T18:57:07.132Z,75.10
2022-08-26T18:59:33.625Z,74.37
2022-08-26T19:02:00.778Z,75.17
2022-08-26T19:04:27.498Z,73.89
2022-08-26T19:06:54.259Z,74.27
2022-08-26T19:09:20.960Z,74.33
2022-08-26T19:11:49.671Z,74.84
2022-08-26T19:14:16.488Z,74.91
2022-08-26T19:16:46.577Z,73.83
2022-08-26T19:19:14.037Z,74.55
2022-08-26T19:21:40.739Z,74.59
2022-08-26T19:24:15.193Z,74.87
2022-08-26T19:26:44.194Z,74.67
2022-08-26T19:29:11.746Z,74.55
2022-08-26T19:31:38.194Z,74.74
2022-08-26T19:34:05.335Z,74.60
2022-08-26T19:36:32.737Z,74.53
2022-08-26T19:39:00.173Z,73.83
2022-08-26T19:41:37.074Z,74.41
2022-08-26T19:44:08.223Z,74.08
2022-08-26T19:46:36.304Z,75.03
2022-08-26T19:49:03.770Z,74.30
2022-08-26T19:51:33.364Z,74.32
2022-08-26T19:54:01.088Z,74.36
2022-08-26T19:56:28.512Z,74.88
2022-08-26T19:58:55.762Z,76.01
2022-08-26T20:01:23.049Z,75.39
2022-08-26T20:03:49.984Z,75.37
2022-08-26T20:06:16.941Z,75.73
2022-08-26T20:08:44.430Z,75.47
2022-08-26T20:11:14.794Z,75.09
2022-08-26T20:13:42.516Z,76.58
2022-08-26T20:16:11.441Z,75.79
2022-08-26T20:18:58.333Z,76.66
2022-08-26T20:21:27.799Z,77.34
2022-08-26T20:24:00.662Z,75.81
2022-08-26T20:26:29.434Z,76.95
2022-08-26T20:28:56.941Z,76.40
2022-08-26T20:31:24.893Z,76.92
2022-08-26T20:33:51.650Z,78.08
2022-08-26T20:36:20.488Z,76.98
2022-08-26T20:38:48.320Z,76.04
2022-08-26T20:41:15.940Z,76.68
2022-08-26T20:43:43.061Z,78.18
2022-08-26T20:46:18.086Z,75.12
2022-08-26T20:48:48.243Z,75.70
2022-08-26T20:51:15.758Z,75.58
2022-08-26T20:53:42.602Z,75.59
2022-08-26T20:56:10.469Z,78.05
2022-08-26T20:58:37.973Z,75.08
2022-08-26T21:01:07.989Z,74.45
2022-08-26T21:03:36.142Z,75.11
2022-08-26T21:06:03.795Z,76.55
2022-08-26T21:08:33.181Z,75.20
2022-08-26T21:11:00.718Z,75.97
2022-08-26T21:13:35.798Z,76.40
2022-08-26T21:16:10.412Z,75.05
2022-08-26T21:18:37.018Z,74.89
2022-08-26T21:21:05.122Z,74.13
2022-08-26T21:23:31.870Z,74.54
2022-08-26T21:26:10.694Z,74.26
2022-08-26T21:28:39.418Z,74.24
2022-08-26T21:31:08.480Z,76.47
2022-08-26T21:33:35.735Z,75.07
2022-08-26T21:36:03.264Z,75.38
2022-08-26T21:38:31.003Z,74.62
2022-08-26T21:41:03.453Z,74.31
2022-08-26T21:43:35.220Z,76.28
2022-08-26T21:46:12.610Z,76.00
2022-08-26T21:48:39.618Z,75.47
2022-08-26T21:51:06.734Z,75.36
2022-08-26T21:53:33.341Z,74.41
2022-08-26T21:56:04.329Z,73.48
2022-08-26T21:58:31.029Z,74.81
2022-08-26T22:00:57.536Z,73.27
2022-08-26T22:03:24.141Z,73.17
2022-08-26T22:05:51.256Z,72.50
2022-08-26T22:08:20.199Z,73.28
2022-08-26T22:10:52.115Z,74.83
2022-08-26T22:13:25.119Z,74.64
2022-08-26T22:15:51.818Z,73.89
2022-08-26T22:18:21.166Z,73.83
2022-08-26T22:20:48.072Z,74.17
2022-08-26T22:23:14.521Z,73.81
2022-08-26T22:25:41.414Z,74.04
2022-08-26T22:28:07.908Z,74.88
2022-08-26T22:30:35.353Z,74.91
2022-08-26T22:33:03.084Z,75.21
2022-08-26T22:35:30.369Z,74.62
2022-08-26T22:37:57.771Z,74.61
2022-08-26T22:40:24.594Z,74.66
2022-08-26T22:42:55.712Z,75.52
2022-08-26T22:45:24.750Z,75.29
2022-08-26T22:47:51.246Z,75.98
2022-08-26T22:50:18.601Z,76.48
2022-08-26T22:52:45.045Z,76.00
2022-08-26T22:55:11.498Z,76.09
2022-08-26T22:57:38.046Z,76.99
2022-08-26T23:00:05.836Z,76.52
2022-08-26T23:02:32.344Z,77.61
2022-08-26T23:04:58.776Z,76.86
2022-08-26T23:07:25.308Z,76.84
2022-08-26T23:09:51.743Z,76.90
2022-08-26T23:12:18.254Z,78.04
2022-08-26T23:14:44.734Z,77.89
2022-08-26T23:17:12.297Z,78.59
2022-08-26T23:19:38.833Z,77.61
2022-08-26T23:22:05.317Z,77.41
2022-08-26T23:24:32.733Z,77.48
2022-08-26T23:26:59.520Z,76.98
2022-08-26T23:29:26.417Z,77.16
2022-08-26T23:31:53.804Z,78.49
2022-08-26T23:34:38.751Z,78.60
2022-08-26T23:37:06.189Z,78.98
2022-08-26T23:39:34.010Z,79.26
2022-08-26T23:42:01.742Z,79.19
2022-08-26T23:44:30.654Z,79.95
2022-08-26T23:46:58.306Z,79.38
2022-08-26T23:49:25.785Z,78.25
2022-08-26T23:52:11.421Z,78.75
2022-08-26T23:54:38.988Z,79.10
2022-08-26T23:57:06.527Z,80.36
2022-08-26T23:59:34.009Z,79.68
